Time;durP1;ratioP1;P1;durP2;ratioP2;P2;SDS_P1;SDS_P2;PMS_P1;PMS_P2;Temp;Humidity;BMP_temperature;BMP_pressure;BME280_temperature;BME280_humidity;BME280_pressure;Samples;Min_cycle;Max_cycle;Signal;HPM_P1;HPM_P2
2023/03/02 00:01:07;;;;;;;13.40;6.20;;;;;;;-1.82;68.93;101878.93;108619;1256;70996;-76
2023/03/02 00:03:36;;;;;;;9.90;5.90;;;;;;;-1.83;68.87;101878.30;108647;1256;72809;-76
2023/03/02 00:06:03;;;;;;;11.20;6.10;;;;;;;-1.84;69.10;101875.58;108478;1256;60977;-75
2023/03/02 00:08:34;;;;;;;9.80;5.90;;;;;;;-1.85;69.15;101874.02;108676;1256;59444;-75
2023/03/02 00:11:04;;;;;;;10.50;6.30;;;;;;;-1.86;69.37;101872.53;108778;1257;73500;-75
2023/03/02 00:13:34;;;;;;;9.40;5.80;;;;;;;-1.88;69.45;101877.80;108600;1264;70822;-75
2023/03/02 00:16:01;;;;;;;14.70;6.90;;;;;;;-1.90;69.65;101877.70;108686;1257;73088;-76
2023/03/02 00:18:28;;;;;;;13.10;6.50;;;;;;;-1.90;69.99;101876.67;108631;1257;60425;-76
2023/03/02 00:20:55;;;;;;;11.50;6.80;;;;;;;-1.90;70.32;101874.95;108668;1257;59269;-76
2023/03/02 00:23:25;;;;;;;10.90;6.50;;;;;;;-1.91;70.58;101878.45;108661;1256;73789;-76
2023/03/02 00:25:52;;;;;;;10.20;6.20;;;;;;;-1.90;70.64;101880.69;108705;1256;70955;-76
2023/03/02 00:28:19;;;;;;;11.00;6.30;;;;;;;-1.90;70.52;101884.49;108606;1256;72726;-76
2023/03/02 00:30:46;;;;;;;9.80;6.40;;;;;;;-1.89;70.56;101885.14;108633;1257;62164;-76
2023/03/02 00:33:13;;;;;;;11.40;6.30;;;;;;;-1.88;70.57;101880.91;108675;1260;59599;-76
2023/03/02 00:35:40;;;;;;;13.10;6.80;;;;;;;-1.87;70.75;101882.78;108673;1258;72662;-76
2023/03/02 00:38:07;;;;;;;11.90;7.10;;;;;;;-1.86;70.79;101875.45;108845;1256;69079;-77
2023/03/02 00:40:35;;;;;;;14.40;7.50;;;;;;;-1.85;70.93;101876.96;108661;1262;72406;-76
2023/03/02 00:43:02;;;;;;;11.60;6.60;;;;;;;-1.84;70.96;101872.79;108810;1256;60493;-76
2023/03/02 00:45:29;;;;;;;12.10;6.90;;;;;;;-1.84;71.11;101872.62;108764;1256;59351;-76
2023/03/02 00:47:56;;;;;;;10.20;6.20;;;;;;;-1.86;71.16;101869.23;108631;1256;73493;-76
2023/03/02 00:50:25;;;;;;;10.80;6.60;;;;;;;-1.88;71.45;101867.39;108667;1257;70105;-76
2023/03/02 00:52:52;;;;;;;10.20;6.00;;;;;;;-1.88;71.79;101868.45;108617;1256;72475;-76
2023/03/02 00:55:18;;;;;;;10.70;6.10;;;;;;;-1.88;71.71;101870.36;108792;1257;62131;-76
2023/03/02 00:57:53;;;;;;;9.20;5.20;;;;;;;-1.89;71.61;101867.61;108829;1256;59148;-76
2023/03/02 01:00:21;;;;;;;11.10;6.20;;;;;;;-1.90;71.44;101873.20;108817;1256;73748;-76
2023/03/02 01:02:49;;;;;;;10.00;6.20;;;;;;;-1.93;71.51;101867.81;108638;1263;70034;-76
2023/03/02 01:05:17;;;;;;;10.80;6.00;;;;;;;-1.96;71.47;101867.94;108637;1262;74285;-76
2023/03/02 01:07:43;;;;;;;10.60;5.50;;;;;;;-2.01;71.57;101866.42;108816;1257;60871;-76
2023/03/02 01:10:11;;;;;;;10.20;5.80;;;;;;;-2.07;71.81;101870.27;108572;1258;59705;-76
2023/03/02 01:12:39;;;;;;;9.10;5.40;;;;;;;-2.13;71.77;101868.97;108814;1256;74682;-76
2023/03/02 01:15:09;;;;;;;11.60;5.70;;;;;;;-2.19;71.77;101870.77;108669;1257;70732;-76
2023/03/02 01:17:38;;;;;;;9.20;5.70;;;;;;;-2.24;72.21;101871.16;108803;1257;71154;-76
2023/03/02 01:20:07;;;;;;;12.00;5.90;;;;;;;-2.28;72.39;101874.09;108800;1256;62461;-76
2023/03/02 01:22:34;;;;;;;9.30;5.20;;;;;;;-2.30;72.78;101871.59;108838;1257;59969;-76
2023/03/02 01:25:02;;;;;;;10.60;5.40;;;;;;;-2.31;72.81;101867.11;108845;1258;73780;-76
2023/03/02 01:27:34;;;;;;;10.20;5.80;;;;;;;-2.32;72.83;101863.54;108783;1256;73035;-76
2023/03/02 01:30:01;;;;;;;9.60;5.80;;;;;;;-2.35;72.83;101860.17;108788;1256;71101;-76
2023/03/02 01:32:28;;;;;;;10.20;5.80;;;;;;;-2.36;72.86;101858.84;108686;1262;61191;-76
2023/03/02 01:34:57;;;;;;;11.20;6.40;;;;;;;-2.37;73.09;101859.23;108834;1260;58914;-76
2023/03/02 01:37:24;;;;;;;9.50;6.20;;;;;;;-2.37;73.12;101854.73;108626;1257;73514;-76
2023/03/02 01:39:51;;;;;;;10.90;6.10;;;;;;;-2.38;73.32;101854.42;108656;1262;71766;-76
2023/03/02 01:42:19;;;;;;;8.40;5.60;;;;;;;-2.38;73.48;101854.79;108698;1257;71227;-76
2023/03/02 01:44:48;;;;;;;9.90;6.10;;;;;;;-2.39;73.74;101853.61;108673;1256;63054;-76
2023/03/02 01:47:38;;;;;;;9.00;5.80;;;;;;;-2.39;74.08;101848.77;108773;1257;60297;-76
2023/03/02 01:50:23;;;;;;;12.80;6.80;;;;;;;-2.40;74.21;101843.42;108665;1261;73555;-76
2023/03/02 01:52:51;;;;;;;11.40;6.70;;;;;;;-2.40;74.20;101844.29;108825;1256;72273;-76
2023/03/02 01:55:23;;;;;;;12.00;6.70;;;;;;;-2.41;74.24;101839.31;108676;1262;72511;-76
2023/03/02 01:57:52;;;;;;;10.80;6.80;;;;;;;-2.42;74.22;101842.64;108802;1257;61328;-76
2023/03/02 02:00:28;;;;;;;12.40;7.00;;;;;;;-2.42;74.51;101836.77;108578;1262;61278;-76
2023/03/02 02:03:07;;;;;;;10.60;6.70;;;;;;;-2.44;74.52;101838.91;108689;1260;74700;-76
2023/03/02 02:05:37;;;;;;;11.00;6.40;;;;;;;-2.48;74.48;101839.02;108776;1257;70101;-76
2023/03/02 02:08:04;;;;;;;13.20;6.80;;;;;;;-2.49;74.78;101840.81;108768;1257;71154;-76
2023/03/02 02:10:32;;;;;;;12.50;6.80;;;;;;;-2.48;74.96;101835.61;108643;1256;60451;-76
2023/03/02 02:13:00;;;;;;;12.30;7.10;;;;;;;-2.48;75.32;101835.77;108678;1257;59685;-76
2023/03/02 02:15:27;;;;;;;14.50;7.00;;;;;;;-2.47;75.72;101832.45;108661;1258;72570;-76
2023/03/02 02:17:54;;;;;;;11.30;6.90;;;;;;;-2.48;76.01;101835.73;108638;1257;71566;-76
2023/03/02 02:20:34;;;;;;;11.50;6.90;;;;;;;-2.48;76.16;101833.01;108811;1258;71525;-76
2023/03/02 02:23:19;;;;;;;12.80;7.30;;;;;;;-2.49;76.59;101833.36;108815;1256;62433;-76
2023/03/02 02:25:57;;;;;;;13.10;6.90;;;;;;;-2.49;76.81;101834.42;108670;1257;60165;-76
2023/03/02 02:28:32;;;;;;;12.90;7.30;;;;;;;-2.49;77.08;101834.58;108812;1258;73755;-77
2023/03/02 02:31:29;;;;;;;12.40;7.80;;;;;;;-2.49;77.52;101835.80;108774;1260;71281;-77
2023/03/02 02:34:03;;;;;;;14.20;7.60;;;;;;;-2.47;77.67;101836.09;108765;1258;73825;-77
2023/03/02 02:36:37;;;;;;;13.60;7.80;;;;;;;-2.47;78.05;101832.58;108785;1257;62377;-77
2023/03/02 02:39:13;;;;;;;14.30;8.00;;;;;;;-2.46;78.32;101833.25;108808;1258;59469;-76
2023/03/02 02:41:41;;;;;;;14.10;8.10;;;;;;;-2.44;78.41;101834.05;108682;1257;73083;-76
2023/03/02 02:44:13;;;;;;;14.10;8.60;;;;;;;-2.42;78.59;101829.81;108627;1257;71245;-77
2023/03/02 02:46:43;;;;;;;17.90;9.30;;;;;;;-2.41;78.72;101825.45;108786;1257;70577;-78
2023/03/02 02:49:17;;;;;;;15.00;8.70;;;;;;;-2.40;78.99;101827.13;108774;1257;61822;-77
2023/03/02 02:51:44;;;;;;;17.40;8.50;;;;;;;-2.39;79.27;101827.77;108774;1258;59446;-76
2023/03/02 02:54:16;;;;;;;16.00;9.10;;;;;;;-2.38;79.47;101826.88;108583;1263;73656;-77
2023/03/02 02:56:48;;;;;;;16.60;9.60;;;;;;;-2.38;79.70;101825.14;108773;1257;69673;-77
2023/03/02 02:59:46;;;;;;;16.10;9.10;;;;;;;-2.37;80.12;101828.22;108673;1260;71861;-76
2023/03/02 03:02:18;;;;;;;16.30;10.00;;;;;;;-2.33;80.71;101829.46;108622;1257;60871;-77
2023/03/02 03:04:46;;;;;;;19.30;10.70;;;;;;;-2.29;81.28;101824.41;108636;1257;60390;-76
2023/03/02 03:07:22;;;;;;;20.10;11.00;;;;;;;-2.23;81.93;101822.80;108747;1258;72164;-77
2023/03/02 03:10:14;;;;;;;23.20;12.70;;;;;;;-2.17;82.71;101817.53;108686;1257;70844;-77
2023/03/02 03:12:41;;;;;;;25.10;14.10;;;;;;;-2.11;83.58;101822.46;108742;1256;72339;-76
2023/03/02 03:15:10;;;;;;;26.90;14.60;;;;;;;-2.04;84.17;101820.61;108584;1257;62136;-76
2023/03/02 03:17:37;;;;;;;27.90;14.80;;;;;;;-1.99;84.60;101817.94;108628;1256;60391;-77
2023/03/02 03:20:05;;;;;;;27.10;15.00;;;;;;;-1.93;85.40;101815.44;108615;1257;74943;-76
2023/03/02 03:22:38;;;;;;;27.90;15.50;;;;;;;-1.87;85.31;101810.12;108622;1257;71316;-76
2023/03/02 03:25:05;;;;;;;29.20;16.00;;;;;;;-1.78;85.78;101812.73;108739;1257;72506;-75
2023/03/02 03:27:32;;;;;;;31.20;15.30;;;;;;;-1.73;86.00;101816.48;108605;1257;61941;-76
2023/03/02 03:30:00;;;;;;;33.40;17.20;;;;;;;-1.67;86.29;101810.67;108576;1256;59518;-76
2023/03/02 03:32:27;;;;;;;35.30;16.60;;;;;;;-1.61;86.61;101806.77;108774;1256;74953;-76
2023/03/02 03:34:55;;;;;;;33.30;16.90;;;;;;;-1.57;87.25;101809.50;108579;1256;71722;-75
2023/03/02 03:37:22;;;;;;;46.10;19.20;;;;;;;-1.53;87.40;101809.68;108622;1257;72362;-75
2023/03/02 03:39:49;;;;;;;41.30;18.50;;;;;;;-1.47;87.39;101815.66;108758;1257;61936;-75
2023/03/02 03:42:17;;;;;;;45.60;19.60;;;;;;;-1.42;88.00;101817.00;108639;1257;59811;-75
2023/03/02 03:44:43;;;;;;;37.00;17.70;;;;;;;-1.38;88.04;101816.99;108616;1258;73130;-74
2023/03/02 03:47:12;;;;;;;45.00;19.90;;;;;;;-1.34;88.46;101817.49;108611;1257;71240;-75
2023/03/02 03:49:39;;;;;;;47.30;20.50;;;;;;;-1.29;88.67;101817.80;108711;1257;71425;-75
2023/03/02 03:52:06;;;;;;;38.00;18.00;;;;;;;-1.25;88.88;101821.41;108583;1256;61459;-75
2023/03/02 03:54:33;;;;;;;39.90;18.40;;;;;;;-1.21;89.52;101820.56;108633;1256;60331;-75
2023/03/02 03:57:00;;;;;;;37.40;18.10;;;;;;;-1.19;90.06;101822.04;108640;1256;74369;-76
2023/03/02 03:59:28;;;;;;;40.90;18.30;;;;;;;-1.16;90.30;101819.96;108696;1257;71031;-75
2023/03/02 04:01:57;;;;;;;55.50;20.70;;;;;;;-1.12;90.76;101823.25;108624;1258;72361;-75
2023/03/02 04:04:27;;;;;;;47.20;19.50;;;;;;;-1.08;90.71;101829.83;108739;1256;60465;-75
2023/03/02 04:06:54;;;;;;;39.30;19.80;;;;;;;-1.02;91.02;101826.95;108717;1257;60085;-75
2023/03/02 04:09:28;;;;;;;39.30;20.10;;;;;;;-0.97;91.10;101828.09;108726;1257;73578;-76
2023/03/02 04:11:55;;;;;;;45.50;19.90;;;;;;;-0.93;91.30;101825.98;108669;1257;69663;-75
2023/03/02 04:14:22;;;;;;;39.20;19.60;;;;;;;-0.87;91.63;101828.86;108750;1256;73877;-75
2023/03/02 04:16:50;;;;;;;40.10;19.90;;;;;;;-0.87;92.28;101824.65;108601;1257;61264;-75
2023/03/02 04:19:17;;;;;;;48.30;20.50;;;;;;;-0.84;92.14;101822.95;108536;1257;60797;-75
2023/03/02 04:21:47;;;;;;;39.10;19.10;;;;;;;-0.81;92.04;101826.32;108616;1256;75008;-75
2023/03/02 04:24:14;;;;;;;36.60;17.90;;;;;;;-0.77;92.29;101826.46;108665;1257;69125;-75
2023/03/02 04:26:44;;;;;;;49.20;19.40;;;;;;;-0.75;92.69;101827.58;108577;1257;70751;-75
2023/03/02 04:29:12;;;;;;;50.90;21.00;;;;;;;-0.72;92.49;101827.09;108754;1260;61934;-75
2023/03/02 04:31:40;;;;;;;39.10;18.10;;;;;;;-0.70;92.43;101824.75;108683;1256;59433;-75
2023/03/02 04:34:07;;;;;;;37.70;18.60;;;;;;;-0.68;92.61;101819.42;108664;1259;74155;-75
2023/03/02 04:36:38;;;;;;;37.50;18.00;;;;;;;-0.67;92.95;101819.57;108754;1257;69829;-74
2023/03/02 04:39:06;;;;;;;38.80;19.20;;;;;;;-0.66;93.01;101821.05;108768;1256;72772;-75
2023/03/02 04:41:33;;;;;;;39.80;19.60;;;;;;;-0.62;93.16;101823.48;108510;1257;60798;-75
2023/03/02 04:44:03;;;;;;;37.20;18.80;;;;;;;-0.59;92.98;101827.84;108699;1259;59173;-75
2023/03/02 04:46:30;;;;;;;46.30;19.90;;;;;;;-0.55;92.92;101833.59;108730;1257;73141;-75
2023/03/02 04:48:58;;;;;;;42.80;18.90;;;;;;;-0.54;92.98;101831.06;108721;1257;70722;-76
2023/03/02 04:51:29;;;;;;;42.50;18.90;;;;;;;-0.52;92.92;101828.87;108564;1256;71471;-76
2023/03/02 04:54:00;;;;;;;41.00;18.40;;;;;;;-0.50;93.01;101824.95;108595;1258;60847;-76
2023/03/02 04:56:27;;;;;;;33.90;18.10;;;;;;;-0.48;93.06;101826.61;108628;1256;59028;-75
2023/03/02 04:58:55;;;;;;;32.80;17.70;;;;;;;-0.45;93.04;101825.60;108551;1257;73670;-75
2023/03/02 05:01:23;;;;;;;35.70;18.40;;;;;;;-0.42;93.23;101821.45;108657;1256;70504;-75
2023/03/02 05:03:50;;;;;;;33.40;18.30;;;;;;;-0.42;93.18;101820.05;108737;1257;73783;-75
2023/03/02 05:06:20;;;;;;;36.60;19.10;;;;;;;-0.40;93.19;101817.00;108687;1256;61230;-75
2023/03/02 05:08:47;;;;;;;32.90;18.70;;;;;;;-0.38;93.16;101813.61;108648;1256;59285;-75
2023/03/02 05:11:20;;;;;;;35.30;18.60;;;;;;;-0.36;93.06;101806.05;108560;1257;74706;-75
2023/03/02 05:13:52;;;;;;;34.00;19.00;;;;;;;-0.32;93.10;101806.89;108712;1256;71256;-75
2023/03/02 05:16:19;;;;;;;28.90;17.50;;;;;;;-0.27;93.12;101803.17;108720;1257;72482;-75
2023/03/02 05:18:46;;;;;;;32.00;16.80;;;;;;;-0.23;93.00;101800.37;108723;1257;61203;-76
2023/03/02 05:21:14;;;;;;;43.20;18.00;;;;;;;-0.24;92.75;101804.59;108618;1258;59137;-75
2023/03/02 05:23:43;;;;;;;37.60;16.90;;;;;;;-0.24;92.65;101799.33;108713;1256;74736;-75
2023/03/02 05:26:10;;;;;;;30.70;16.80;;;;;;;-0.23;92.68;101803.30;108532;1257;70156;-75
2023/03/02 05:28:38;;;;;;;30.00;16.90;;;;;;;-0.22;92.66;101808.65;108669;1257;70951;-75
2023/03/02 05:31:05;;;;;;;30.80;16.70;;;;;;;-0.23;92.77;101809.86;108693;1257;61090;-75
2023/03/02 05:33:32;;;;;;;32.00;16.90;;;;;;;-0.23;92.67;101808.67;108708;1257;59033;-75
2023/03/02 05:35:59;;;;;;;30.10;16.90;;;;;;;-0.22;92.84;101806.90;108815;1257;72085;-75
2023/03/02 05:38:26;;;;;;;28.60;15.70;;;;;;;-0.23;92.84;101808.17;108788;1257;70397;-76
2023/03/02 05:40:54;;;;;;;29.90;16.30;;;;;;;-0.25;92.89;101809.46;108832;1257;72710;-76
2023/03/02 05:43:22;;;;;;;30.00;16.70;;;;;;;-0.25;93.07;101806.88;108879;1256;60849;-76
2023/03/02 05:45:49;;;;;;;26.80;16.00;;;;;;;-0.26;93.02;101807.78;108891;1256;59968;-75
2023/03/02 05:48:16;;;;;;;25.30;16.00;;;;;;;-0.25;92.96;101805.27;108802;1257;73225;-76
2023/03/02 05:50:43;;;;;;;28.50;16.00;;;;;;;-0.22;93.24;101806.20;108713;1257;69439;-76
2023/03/02 05:53:10;;;;;;;30.20;16.50;;;;;;;-0.22;92.97;101803.27;108870;1256;71468;-76
2023/03/02 05:55:37;;;;;;;29.20;15.80;;;;;;;-0.23;93.09;101805.19;108723;1257;60916;-76
2023/03/02 05:58:10;;;;;;;28.40;15.70;;;;;;;-0.26;93.22;101808.32;108844;1257;58429;-76
2023/03/02 06:00:37;;;;;;;26.70;15.50;;;;;;;-0.30;93.24;101808.52;108820;1256;74118;-75
2023/03/02 06:03:04;;;;;;;27.40;14.90;;;;;;;-0.32;93.46;101809.47;108682;1257;71355;-75
2023/03/02 06:05:31;;;;;;;28.60;16.00;;;;;;;-0.32;93.30;101814.86;108655;1257;73780;-76
2023/03/02 06:07:58;;;;;;;25.90;15.70;;;;;;;-0.30;93.31;101820.51;108912;1256;59858;-76
2023/03/02 06:10:25;;;;;;;32.40;16.90;;;;;;;-0.29;93.38;101823.06;108823;1255;59599;-76
2023/03/02 06:12:55;;;;;;;31.30;16.40;;;;;;;-0.29;93.59;101825.16;108825;1256;74409;-76
2023/03/02 06:15:22;;;;;;;32.90;16.60;;;;;;;-0.29;93.52;101827.42;108861;1256;70696;-76
2023/03/02 06:17:49;;;;;;;25.10;15.30;;;;;;;-0.32;93.67;101830.18;108798;1257;72822;-76
2023/03/02 06:20:19;;;;;;;23.80;14.10;;;;;;;-0.36;93.45;101833.85;108543;1257;59619;-76
2023/03/02 06:22:47;;;;;;;27.20;15.70;;;;;;;-0.34;93.61;101839.48;108856;1259;60523;-79
2023/03/02 06:25:18;;;;;;;25.60;15.10;;;;;;;-0.29;93.82;101849.16;108935;1256;74651;-79
2023/03/02 06:27:48;;;;;;;26.80;15.20;;;;;;;-0.24;94.08;101855.69;108848;1256;69955;-79
2023/03/02 06:30:17;;;;;;;29.70;16.30;;;;;;;-0.21;94.12;101858.84;108795;1257;70140;-79
2023/03/02 06:32:44;;;;;;;27.00;15.90;;;;;;;-0.20;93.89;101856.17;108776;1257;60376;-79
2023/03/02 06:35:12;;;;;;;29.30;15.40;;;;;;;-0.17;93.98;101857.05;108760;1258;60444;-79
2023/03/02 06:37:39;;;;;;;25.60;15.80;;;;;;;-0.15;93.99;101857.65;108829;1257;73112;-79
2023/03/02 06:40:10;;;;;;;23.80;13.60;;;;;;;-0.14;94.33;101858.80;108845;1257;69975;-79
2023/03/02 06:42:39;;;;;;;21.90;12.90;;;;;;;-0.17;94.20;101859.48;108840;1256;71435;-79
2023/03/02 06:45:10;;;;;;;25.30;14.80;;;;;;;-0.19;94.43;101861.52;108775;1257;60897;-80
2023/03/02 06:47:37;;;;;;;26.20;14.50;;;;;;;-0.14;94.38;101861.44;108883;1256;59183;-79
2023/03/02 06:50:05;;;;;;;28.50;14.60;;;;;;;-0.08;94.28;101859.54;108869;1257;74654;-79
2023/03/02 06:52:32;;;;;;;26.40;14.30;;;;;;;-0.04;94.16;101861.43;108844;1258;70871;-79
2023/03/02 06:54:59;;;;;;;25.30;14.40;;;;;;;-0.03;94.02;101858.77;108716;1257;73017;-79
2023/03/02 06:57:32;;;;;;;25.80;14.70;;;;;;;0.01;93.71;101857.20;108979;1256;59776;-79
2023/03/02 07:00:08;;;;;;;30.90;15.00;;;;;;;0.04;93.92;101855.48;108922;1258;59941;-79
2023/03/02 07:02:36;;;;;;;22.10;13.80;;;;;;;0.07;93.93;101852.38;108944;1257;73249;-79
2023/03/02 07:05:04;;;;;;;19.80;12.20;;;;;;;0.05;93.97;101850.38;108313;1257;71708;-79
2023/03/02 07:07:34;;;;;;;23.40;14.20;;;;;;;0.03;93.64;101846.14;108743;1256;71515;-79
2023/03/02 07:10:01;;;;;;;29.20;15.50;;;;;;;0.05;93.60;101845.52;108849;1256;62248;-79
2023/03/02 07:12:28;;;;;;;39.30;16.10;;;;;;;0.09;93.63;101847.05;108746;1256;60507;-79
2023/03/02 07:14:56;;;;;;;31.00;15.00;;;;;;;0.12;93.59;101844.80;108563;1256;73405;-79
2023/03/02 07:17:23;;;;;;;22.80;13.50;;;;;;;0.18;93.73;101843.61;108647;1257;69617;-79
2023/03/02 07:19:53;;;;;;;29.40;15.20;;;;;;;0.24;93.61;101837.58;108656;1256;72405;-79
2023/03/02 07:22:20;;;;;;;27.60;14.50;;;;;;;0.30;93.22;101840.20;108733;1257;60926;-79
2023/03/02 07:24:48;;;;;;;33.40;14.40;;;;;;;0.35;93.12;101836.83;108834;1257;60039;-79
2023/03/02 07:27:15;;;;;;;34.60;15.10;;;;;;;0.41;92.96;101835.49;108748;1258;74665;-79
2023/03/02 07:29:45;;;;;;;26.30;13.90;;;;;;;0.44;92.89;101833.22;108766;1257;69705;-79
2023/03/02 07:32:13;;;;;;;20.20;12.20;;;;;;;0.45;92.71;101831.10;108855;1256;71890;-79
2023/03/02 07:34:40;;;;;;;20.10;11.80;;;;;;;0.45;92.35;101832.83;108578;1259;61772;-79
2023/03/02 07:37:07;;;;;;;24.90;13.80;;;;;;;0.44;92.21;101828.91;108849;1256;59064;-79
2023/03/02 07:39:35;;;;;;;21.00;13.10;;;;;;;0.45;92.30;101834.38;108733;1257;73512;-79
2023/03/02 07:42:05;;;;;;;25.90;13.50;;;;;;;0.48;92.38;101839.29;108908;1255;70096;-79
2023/03/02 07:44:33;;;;;;;22.00;12.30;;;;;;;0.48;92.22;101836.52;108751;1257;71567;-79
2023/03/02 07:47:00;;;;;;;24.70;13.60;;;;;;;0.47;92.18;101834.11;108164;1256;915597;-80
2023/03/02 07:49:27;;;;;;;26.20;13.50;;;;;;;0.49;92.14;101832.79;108920;1256;59040;-80
2023/03/02 07:51:55;;;;;;;22.30;12.70;;;;;;;0.53;92.30;101830.81;108845;1257;74876;-80
2023/03/02 07:54:25;;;;;;;21.00;12.90;;;;;;;0.59;92.22;101832.10;108876;1256;70895;-80
2023/03/02 07:56:52;;;;;;;21.50;12.70;;;;;;;0.62;92.13;101830.35;108832;1256;72363;-80
2023/03/02 07:59:22;;;;;;;23.80;14.00;;;;;;;0.64;92.10;101827.09;108821;1257;61118;-80
2023/03/02 08:01:49;;;;;;;21.80;13.50;;;;;;;0.70;92.22;101823.84;108799;1259;60522;-80
2023/03/02 08:04:16;;;;;;;21.90;12.60;;;;;;;0.74;92.20;101823.10;108876;1256;74734;-80
2023/03/02 08:06:43;;;;;;;28.10;14.40;;;;;;;0.70;91.96;101825.08;108802;1256;72191;-80
2023/03/02 08:09:11;;;;;;;21.10;13.00;;;;;;;0.70;91.91;101832.17;108708;1257;72397;-80
2023/03/02 08:11:43;;;;;;;19.10;12.20;;;;;;;0.71;92.10;101830.93;108871;1256;60678;-80
2023/03/02 08:14:11;;;;;;;26.30;13.10;;;;;;;0.69;92.08;101834.48;108903;1256;60110;-80
2023/03/02 08:16:38;;;;;;;22.30;13.50;;;;;;;0.70;92.02;101836.52;108806;1257;74641;-80
2023/03/02 08:19:06;;;;;;;20.40;13.00;;;;;;;0.78;92.24;101834.18;108834;1257;71680;-80
2023/03/02 08:21:33;;;;;;;19.60;11.90;;;;;;;0.88;92.32;101836.09;108850;1257;71292;-80
2023/03/02 08:24:04;;;;;;;22.80;12.70;;;;;;;0.90;91.79;101836.54;108955;1255;61209;-80
2023/03/02 08:26:31;;;;;;;21.30;13.00;;;;;;;0.90;91.57;101836.70;108764;1256;59909;-80
2023/03/02 08:28:58;;;;;;;20.40;12.90;;;;;;;0.94;91.72;101833.70;108882;1257;74388;-80
2023/03/02 08:31:25;;;;;;;21.30;12.70;;;;;;;0.97;91.78;101833.66;108883;1257;71507;-80
2023/03/02 08:33:53;;;;;;;20.80;13.60;;;;;;;1.05;91.67;101837.09;108748;1256;71169;-80
2023/03/02 08:36:20;;;;;;;19.10;12.60;;;;;;;1.14;91.88;101830.84;108762;1256;59723;-80
2023/03/02 08:38:47;;;;;;;19.40;12.20;;;;;;;1.21;91.54;101832.16;108893;1255;58957;-80
2023/03/02 08:41:19;;;;;;;19.50;12.30;;;;;;;1.30;91.29;101831.16;108865;1256;74107;-80
2023/03/02 08:43:47;;;;;;;18.30;11.30;;;;;;;1.34;91.01;101830.55;108836;1256;69936;-80
2023/03/02 08:46:16;;;;;;;17.10;11.70;;;;;;;1.36;90.51;101838.63;108856;1256;71475;-80
2023/03/02 08:48:44;;;;;;;16.90;11.70;;;;;;;1.39;90.51;101836.89;108983;1256;59661;-80
2023/03/02 08:51:19;;;;;;;17.80;11.30;;;;;;;1.42;90.50;101838.48;108929;1257;59831;-81
2023/03/02 08:53:53;;;;;;;16.40;10.80;;;;;;;1.44;89.99;101842.54;108943;1257;73700;-79
2023/03/02 08:56:27;;;;;;;17.90;11.80;;;;;;;1.50;90.15;101842.00;108915;1256;71264;-79
2023/03/02 08:58:58;;;;;;;18.20;11.60;;;;;;;1.56;89.85;101842.88;108913;1256;70157;-80
2023/03/02 09:01:31;;;;;;;17.50;12.30;;;;;;;1.65;89.82;101844.65;108827;1257;60916;-80
2023/03/02 09:03:59;;;;;;;19.20;11.20;;;;;;;1.71;89.59;101845.20;109050;1256;59800;-80
2023/03/02 09:06:28;;;;;;;17.30;10.50;;;;;;;1.73;88.98;101845.05;108926;1256;73203;-80
2023/03/02 09:09:02;;;;;;;15.30;10.30;;;;;;;1.76;88.47;101845.27;108773;1262;69271;-80
2023/03/02 09:11:29;;;;;;;13.50;9.70;;;;;;;1.74;87.86;101843.09;108829;1256;72034;-80
2023/03/02 09:13:57;;;;;;;12.90;8.80;;;;;;;1.74;87.85;101841.36;108682;1256;59943;-80
2023/03/02 09:16:24;;;;;;;16.90;10.30;;;;;;;1.72;87.53;101845.16;108634;1256;61335;-80
2023/03/02 09:18:52;;;;;;;14.00;9.60;;;;;;;1.70;87.64;101846.47;108768;1257;74357;-80
2023/03/02 09:21:23;;;;;;;15.40;10.50;;;;;;;1.70;87.37;101845.27;108904;1258;69712;-80
2023/03/02 09:23:56;;;;;;;14.60;9.10;;;;;;;1.71;87.59;101840.84;108882;1256;73203;-80
2023/03/02 09:26:24;;;;;;;16.40;10.20;;;;;;;1.76;87.73;101841.96;108898;1256;59937;-80
2023/03/02 09:28:52;;;;;;;15.30;10.20;;;;;;;1.83;87.91;101837.67;108750;1257;59355;-80
2023/03/02 09:31:19;;;;;;;15.60;10.10;;;;;;;1.93;87.74;101838.50;108738;1256;74402;-80
2023/03/02 09:33:46;;;;;;;15.60;10.00;;;;;;;2.00;87.41;101842.27;108825;1256;71017;-81
2023/03/02 09:36:19;;;;;;;16.60;10.90;;;;;;;2.10;87.52;101846.35;108829;1256;71432;-81
2023/03/02 09:38:47;;;;;;;14.90;9.70;;;;;;;2.19;87.18;101850.71;108902;1256;59663;-81
2023/03/02 09:41:20;;;;;;;14.50;10.30;;;;;;;2.22;86.34;101850.73;108830;1257;59685;-81
2023/03/02 09:44:18;;;;;;;16.60;10.80;;;;;;;2.30;87.01;101849.39;108915;1256;74638;-81
2023/03/02 09:47:11;;;;;;;15.90;9.20;;;;;;;2.41;86.84;101851.86;108841;1256;69714;-81
2023/03/02 09:50:02;;;;;;;16.00;10.20;;;;;;;2.49;86.32;101850.17;108825;1257;72388;-81
2023/03/02 09:52:39;;;;;;;15.20;10.20;;;;;;;2.53;85.71;101847.27;108828;1256;61445;-80
2023/03/02 09:55:22;;;;;;;17.40;10.30;;;;;;;2.63;85.89;101846.30;108825;1257;58978;-80
2023/03/02 09:57:49;;;;;;;14.80;10.00;;;;;;;2.78;85.87;101839.80;108937;1256;73279;-80
2023/03/02 10:00:29;;;;;;;13.20;9.40;;;;;;;2.88;85.27;101838.64;108860;1259;68904;-80
2023/03/02 10:03:00;;;;;;;13.70;9.60;;;;;;;3.00;84.71;101835.28;108899;1256;71449;-80
2023/03/02 10:05:44;;;;;;;15.00;9.80;;;;;;;3.07;84.50;101832.02;108873;1261;59752;-80
2023/03/02 10:08:15;;;;;;;11.80;8.20;;;;;;;3.14;84.14;101826.16;108922;1257;59089;-80
2023/03/02 10:10:57;;;;;;;14.30;8.80;;;;;;;3.18;83.02;101831.98;108877;1257;73440;-81
2023/03/02 10:13:34;;;;;;;12.90;8.90;;;;;;;3.27;82.73;101829.69;108810;1257;70716;-80
2023/03/02 10:16:12;;;;;;;12.00;8.50;;;;;;;3.30;81.47;101831.98;108904;1256;72971;-80
2023/03/02 10:18:57;;;;;;;12.00;8.50;;;;;;;3.26;81.38;101829.06;108937;1257;61270;-80
2023/03/02 10:21:31;;;;;;;13.10;9.30;;;;;;;3.24;81.11;101828.81;109067;1256;59064;-81
2023/03/02 10:24:23;;;;;;;12.00;8.70;;;;;;;3.22;81.06;101824.92;108901;1257;73160;-80
2023/03/02 10:26:55;;;;;;;13.10;9.00;;;;;;;3.17;81.02;101829.30;108903;1256;71204;-78
2023/03/02 10:29:39;;;;;;;13.20;9.60;;;;;;;3.19;81.12;101832.85;108913;1256;70793;-80
2023/03/02 10:32:21;;;;;;;13.00;8.70;;;;;;;3.25;81.04;101829.62;108901;1256;60912;-80
2023/03/02 10:34:50;;;;;;;14.20;9.70;;;;;;;3.28;81.34;101826.66;108929;1256;59938;-80
2023/03/02 10:37:21;;;;;;;13.60;9.70;;;;;;;3.34;81.33;101829.09;108870;1256;73192;-79
2023/03/02 10:39:48;;;;;;;13.30;8.20;;;;;;;3.41;81.21;101827.05;108816;1256;71437;-80
2023/03/02 10:42:29;;;;;;;14.20;9.60;;;;;;;3.37;80.51;101823.44;108773;1256;73050;-80
2023/03/02 10:45:27;;;;;;;13.80;9.90;;;;;;;3.37;80.73;101822.75;108732;1257;61000;-80
2023/03/02 10:48:06;;;;;;;13.70;9.40;;;;;;;3.38;81.09;101820.59;108737;1257;59985;-80
2023/03/02 10:50:35;;;;;;;14.40;9.60;;;;;;;3.39;80.82;101815.31;108900;1256;73455;-80
2023/03/02 10:53:05;;;;;;;14.00;9.90;;;;;;;3.41;81.04;101811.64;108904;1256;69749;-80
2023/03/02 10:55:33;;;;;;;14.10;10.00;;;;;;;3.48;80.78;101809.48;108812;1256;71173;-80
2023/03/02 10:58:31;;;;;;;14.20;9.80;;;;;;;3.52;80.35;101803.57;108924;1256;59898;-80
2023/03/02 11:01:05;;;;;;;13.90;9.90;;;;;;;3.64;80.84;101801.55;108792;1257;59385;-80
2023/03/02 11:03:32;;;;;;;16.20;10.70;;;;;;;3.78;80.58;101803.58;108907;1256;72270;-80
2023/03/02 11:06:16;;;;;;;16.90;11.00;;;;;;;3.86;80.20;101800.98;108944;1256;70237;-80
2023/03/02 11:08:45;;;;;;;15.20;9.70;;;;;;;3.96;80.12;101802.04;108812;1256;72431;-80
2023/03/02 11:11:23;;;;;;;15.80;11.20;;;;;;;3.93;79.60;101797.64;108807;1257;61379;-80
2023/03/02 11:13:50;;;;;;;17.30;12.00;;;;;;;3.94;79.40;101797.10;108837;1256;58919;-78
2023/03/02 11:16:17;;;;;;;14.10;10.30;;;;;;;3.91;79.06;101799.77;108889;1256;73173;-79
2023/03/02 11:18:57;;;;;;;16.10;10.20;;;;;;;3.89;79.19;101801.80;108864;1255;70090;-79
2023/03/02 11:21:41;;;;;;;16.10;10.50;;;;;;;3.93;79.61;101799.28;108923;1256;73902;-78